createdAt,value
2018-12-09T00:01:44.906Z,99.90
2018-12-09T00:04:15.439Z,99.90
2018-12-09T00:06:45.959Z,99.90
2018-12-09T00:09:16.496Z,99.90
2018-12-09T00:11:47.318Z,99.90
2018-12-09T00:14:17.847Z,99.90
2018-12-09T00:16:48.397Z,99.90
2018-12-09T00:19:18.596Z,99.90
2018-12-09T00:21:49.125Z,99.90
2018-12-09T00:24:19.348Z,99.90
2018-12-09T00:26:49.876Z,99.90
2018-12-09T00:29:20.707Z,99.90
2018-12-09T00:31:51.257Z,99.90
2018-12-09T00:34:21.762Z,99.90
2018-12-09T00:36:52.294Z,99.90
2018-12-09T00:39:22.518Z,99.90
2018-12-09T00:41:53.036Z,99.90
2018-12-09T00:44:23.265Z,99.90
2018-12-09T00:46:53.794Z,99.90
2018-12-09T00:49:24.123Z,99.90
2018-12-09T00:51:54.843Z,99.90
2018-12-09T00:54:25.064Z,99.90
2018-12-09T00:56:55.325Z,99.90
2018-12-09T00:59:25.813Z,99.90
2018-12-09T01:01:56.035Z,99.90
2018-12-09T01:04:26.562Z,99.90
2018-12-09T01:06:59.854Z,99.90
2018-12-09T01:09:30.077Z,99.90
2018-12-09T01:12:02.452Z,99.90
2018-12-09T01:14:32.668Z,99.90
2018-12-09T01:17:03.196Z,99.90
2018-12-09T01:19:33.722Z,99.90
2018-12-09T01:22:04.248Z,99.90
2018-12-09T01:24:34.477Z,99.90
2018-12-09T01:27:05.006Z,99.90
2018-12-09T01:29:36.254Z,99.90
2018-12-09T01:32:06.981Z,99.90
2018-12-09T01:34:37.199Z,99.90
2018-12-09T01:37:07.721Z,99.90
2018-12-09T01:39:37.948Z,99.90
2018-12-09T01:42:08.478Z,99.90
2018-12-09T01:44:38.696Z,99.90
2018-12-09T01:47:09.230Z,99.90
2018-12-09T01:49:39.747Z,99.90
2018-12-09T01:52:10.276Z,99.90
2018-12-09T01:54:40.843Z,99.90
2018-12-09T01:57:11.638Z,99.90
2018-12-09T01:59:41.858Z,99.90
2018-12-09T02:02:12.342Z,99.90
2018-12-09T02:04:42.403Z,99.90
2018-12-09T02:07:12.835Z,99.90
2018-12-09T02:09:43.055Z,99.90
2018-12-09T02:12:13.889Z,99.90
2018-12-09T02:14:44.108Z,99.90
2018-12-09T02:17:14.635Z,99.90
2018-12-09T02:19:44.856Z,99.90
2018-12-09T02:22:15.395Z,99.90
2018-12-09T02:24:45.606Z,99.90
2018-12-09T02:27:16.133Z,99.90
2018-12-09T02:29:46.790Z,99.90
2018-12-09T02:32:17.188Z,99.90
2018-12-09T02:34:52.940Z,99.90
2018-12-09T02:37:23.460Z,99.90
2018-12-09T02:39:53.991Z,99.90
2018-12-09T02:42:24.520Z,99.90
2018-12-09T02:44:54.564Z,99.90
2018-12-09T02:47:24.962Z,99.90
2018-12-09T02:49:55.181Z,99.90
2018-12-09T02:52:25.713Z,99.90
2018-12-09T02:54:55.931Z,99.90
2018-12-09T02:57:26.460Z,99.90
2018-12-09T02:59:56.678Z,99.90
2018-12-09T03:02:26.999Z,99.90
2018-12-09T03:04:57.426Z,99.90
2018-12-09T03:07:27.959Z,99.90
2018-12-09T03:09:57.981Z,99.90
2018-12-09T03:12:28.397Z,99.90
2018-12-09T03:14:58.619Z,99.90
2018-12-09T03:17:29.449Z,99.90
2018-12-09T03:19:59.674Z,99.90
2018-12-09T03:22:30.197Z,99.90
2018-12-09T03:25:00.735Z,99.90
2018-12-09T03:27:31.258Z,99.90
2018-12-09T03:30:01.787Z,99.90
2018-12-09T03:32:32.318Z,99.90
2018-12-09T03:35:02.537Z,99.90
2018-12-09T03:37:33.064Z,99.90
2018-12-09T03:40:03.239Z,99.90
2018-12-09T03:42:33.810Z,99.90
2018-12-09T03:45:04.028Z,99.90
2018-12-09T03:47:34.557Z,99.90
2018-12-09T03:50:05.087Z,99.90
2018-12-09T03:52:35.609Z,99.90
2018-12-09T03:55:06.446Z,99.90
2018-12-09T03:57:36.977Z,99.90
2018-12-09T04:00:07.817Z,99.90
2018-12-09T04:02:38.342Z,99.90
2018-12-09T04:05:08.867Z,99.90
2018-12-09T04:07:39.292Z,99.90
2018-12-09T04:10:09.620Z,99.90
2018-12-09T04:12:40.148Z,99.90
2018-12-09T04:15:10.260Z,99.90
2018-12-09T04:17:40.584Z,99.90
2018-12-09T04:20:10.807Z,99.90
2018-12-09T04:22:41.231Z,99.90
2018-12-09T04:25:11.560Z,99.90
2018-12-09T04:27:42.088Z,99.90
2018-12-09T04:30:12.913Z,99.90
2018-12-09T04:32:44.055Z,99.90
2018-12-09T04:35:14.281Z,99.90
2018-12-09T04:37:44.807Z,99.90
2018-12-09T04:40:15.027Z,99.90
2018-12-09T04:42:45.852Z,99.90
2018-12-09T04:45:16.083Z,99.90
2018-12-09T04:47:46.621Z,99.90
2018-12-09T04:50:16.832Z,99.90
2018-12-09T04:52:47.359Z,99.90
2018-12-09T04:55:17.372Z,99.90
2018-12-09T04:57:48.117Z,99.90
2018-12-09T05:00:29.511Z,99.90
2018-12-09T05:03:00.043Z,99.90
2018-12-09T05:05:30.255Z,99.90
2018-12-09T05:08:00.786Z,99.90
2018-12-09T05:10:31.004Z,99.90
2018-12-09T05:13:01.840Z,99.90
2018-12-09T05:15:32.057Z,99.90
2018-12-09T05:18:02.586Z,99.90
2018-12-09T05:20:32.805Z,99.90
2018-12-09T05:23:03.647Z,99.90
2018-12-09T05:25:33.867Z,99.90
2018-12-09T05:28:04.196Z,99.90
2018-12-09T05:30:34.924Z,99.90
2018-12-09T05:33:05.761Z,99.90
2018-12-09T05:35:35.978Z,99.90
2018-12-09T05:38:06.560Z,99.90
2018-12-09T05:40:37.034Z,99.90
2018-12-09T05:43:07.457Z,99.90
2018-12-09T05:45:37.783Z,99.90
2018-12-09T05:48:08.310Z,99.90
2018-12-09T05:50:38.327Z,99.90
2018-12-09T05:53:08.750Z,99.90
2018-12-09T05:55:38.968Z,99.90
2018-12-09T05:58:09.497Z,99.90
2018-12-09T06:00:40.026Z,99.90
2018-12-09T06:03:10.560Z,99.90
2018-12-09T06:05:41.098Z,99.90
2018-12-09T06:08:11.616Z,99.90
2018-12-09T06:10:41.839Z,99.90
2018-12-09T06:13:12.436Z,99.90
2018-12-09T06:15:43.191Z,99.90
2018-12-09T06:18:13.775Z,99.90
2018-12-09T06:20:43.944Z,99.90
2018-12-09T06:23:14.471Z,99.90
2018-12-09T06:25:44.694Z,99.90
2018-12-09T06:28:15.272Z,99.90
2018-12-09T06:30:46.056Z,99.90
2018-12-09T06:33:15.382Z,99.90
2018-12-09T06:35:44.566Z,99.90
2018-12-09T06:38:13.785Z,99.90
2018-12-09T06:40:42.965Z,99.90
2018-12-09T06:43:12.151Z,99.90
2018-12-09T06:45:41.328Z,99.90
2018-12-09T06:48:11.909Z,99.90
2018-12-09T06:50:41.090Z,99.90
2018-12-09T06:53:10.307Z,99.90
2018-12-09T06:55:39.540Z,99.90
2018-12-09T06:58:08.782Z,99.90
2018-12-09T07:00:38.358Z,99.90
2018-12-09T07:03:07.583Z,99.90
2018-12-09T07:05:36.840Z,99.90
2018-12-09T07:08:06.084Z,99.90
2018-12-09T07:10:35.317Z,99.90
2018-12-09T07:13:05.371Z,99.90
2018-12-09T07:15:34.662Z,99.90
2018-12-09T07:18:03.868Z,99.90
2018-12-09T07:20:33.075Z,99.90
2018-12-09T07:23:02.302Z,99.90
2018-12-09T07:25:31.565Z,99.90
2018-12-09T07:28:00.774Z,99.90
2018-12-09T07:30:29.996Z,99.90
2018-12-09T07:33:00.330Z,99.90
2018-12-09T07:35:29.644Z,99.90
2018-12-09T07:37:58.890Z,99.90
2018-12-09T07:40:28.062Z,99.90
2018-12-09T07:42:57.274Z,99.90
2018-12-09T07:45:26.504Z,99.90
2018-12-09T07:47:55.825Z,99.90
2018-12-09T07:50:25.103Z,99.90
2018-12-09T07:52:54.285Z,99.90
2018-12-09T07:55:23.507Z,99.90
2018-12-09T07:57:52.680Z,99.90
2018-12-09T08:00:21.869Z,99.90
2018-12-09T08:02:51.100Z,99.90
2018-12-09T08:05:20.313Z,99.90
2018-12-09T08:07:49.536Z,99.90
2018-12-09T08:10:18.764Z,99.90
2018-12-09T08:12:47.987Z,99.90
2018-12-09T08:15:17.222Z,99.90
2018-12-09T08:17:47.666Z,99.90
2018-12-09T08:20:17.896Z,99.90
2018-12-09T08:22:48.419Z,99.90
2018-12-09T08:25:18.640Z,99.90
2018-12-09T08:27:49.145Z,99.90
2018-12-09T08:30:19.389Z,99.90
2018-12-09T08:32:49.913Z,99.90
2018-12-09T08:35:20.751Z,99.90
2018-12-09T08:37:51.283Z,99.90
2018-12-09T08:40:21.499Z,99.90
2018-12-09T08:42:52.943Z,99.90
2018-12-09T08:45:23.163Z,99.90
2018-12-09T08:47:52.534Z,99.90
2018-12-09T08:50:21.716Z,99.90
2018-12-09T08:52:50.900Z,99.90
2018-12-09T08:55:20.120Z,99.90
2018-12-09T08:57:49.349Z,99.90
2018-12-09T09:00:18.554Z,99.90
2018-12-09T09:02:47.800Z,99.90
2018-12-09T09:05:18.165Z,99.90
2018-12-09T09:07:47.349Z,99.90
2018-12-09T09:10:16.537Z,99.90
2018-12-09T09:12:45.734Z,99.90
2018-12-09T09:15:15.036Z,99.90
2018-12-09T09:17:44.400Z,99.90
2018-12-09T09:20:13.652Z,99.90
2018-12-09T09:22:42.835Z,99.90
2018-12-09T09:25:12.060Z,99.90
2018-12-09T09:27:41.236Z,99.90
2018-12-09T09:30:10.450Z,99.90
2018-12-09T09:32:39.682Z,99.90
2018-12-09T09:35:08.969Z,99.90
2018-12-09T09:37:38.512Z,99.90
2018-12-09T09:40:07.707Z,99.90
2018-12-09T09:42:36.996Z,99.90
2018-12-09T09:45:06.367Z,99.90
2018-12-09T09:47:35.554Z,99.90
2018-12-09T09:50:04.911Z,99.90
2018-12-09T09:52:34.094Z,99.90
2018-12-09T09:55:03.331Z,99.90
2018-12-09T09:57:32.558Z,99.90
2018-12-09T10:00:01.734Z,99.90
2018-12-09T10:02:30.948Z,99.90
2018-12-09T10:05:00.133Z,99.90
2018-12-09T10:07:29.339Z,99.90
2018-12-09T10:09:58.564Z,99.90
2018-12-09T10:12:27.751Z,99.90
2018-12-09T10:14:57.000Z,99.90
2018-12-09T10:17:26.230Z,99.90
2018-12-09T10:19:55.499Z,99.90
2018-12-09T10:22:24.681Z,99.90
2018-12-09T10:24:53.916Z,99.90
2018-12-09T10:27:23.130Z,99.90
2018-12-09T10:29:52.315Z,99.90
2018-12-09T10:32:21.704Z,99.90
2018-12-09T10:34:50.940Z,99.90
2018-12-09T10:37:20.139Z,99.90
2018-12-09T10:39:49.685Z,99.90
2018-12-09T10:42:18.893Z,99.90
2018-12-09T10:44:48.130Z,99.90
2018-12-09T10:47:17.354Z,99.90
2018-12-09T10:49:46.583Z,99.90
2018-12-09T10:52:15.765Z,99.90
2018-12-09T10:54:44.988Z,99.90
2018-12-09T10:57:14.249Z,99.90
2018-12-09T10:59:43.488Z,99.90
2018-12-09T11:02:18.153Z,99.90
2018-12-09T11:04:47.393Z,99.90
2018-12-09T11:07:16.636Z,99.90
2018-12-09T11:09:45.813Z,99.90
2018-12-09T11:12:15.037Z,99.90
2018-12-09T11:14:44.277Z,99.90
2018-12-09T11:17:13.462Z,99.90
2018-12-09T11:19:42.665Z,99.90
2018-12-09T11:22:12.663Z,99.90
2018-12-09T11:24:41.920Z,99.90
2018-12-09T11:27:11.118Z,99.90
2018-12-09T11:29:40.298Z,99.90
2018-12-09T11:32:09.568Z,99.90
2018-12-09T11:34:38.757Z,99.90
2018-12-09T11:37:08.004Z,99.90
2018-12-09T11:39:37.204Z,99.90
2018-12-09T11:42:06.954Z,99.90
2018-12-09T11:44:36.432Z,99.90
2018-12-09T11:47:05.659Z,99.90
2018-12-09T11:49:34.839Z,99.90
2018-12-09T11:52:04.035Z,99.90
2018-12-09T11:54:33.264Z,99.90
2018-12-09T11:57:02.481Z,99.90
2018-12-09T11:59:31.644Z,99.90
2018-12-09T12:02:00.922Z,99.90
2018-12-09T12:04:30.091Z,99.90
2018-12-09T12:06:59.287Z,99.90
2018-12-09T12:09:28.530Z,99.90
2018-12-09T12:11:57.701Z,99.90
2018-12-09T12:14:26.891Z,99.90
2018-12-09T12:16:56.156Z,99.90
2018-12-09T12:19:25.309Z,99.90
2018-12-09T12:21:54.471Z,99.90
2018-12-09T12:24:23.723Z,99.90
2018-12-09T12:26:52.926Z,99.90
2018-12-09T12:29:22.130Z,99.90
2018-12-09T12:31:51.363Z,99.90
2018-12-09T12:34:20.527Z,99.90
2018-12-09T12:36:49.731Z,99.90
2018-12-09T12:39:18.898Z,99.90
2018-12-09T12:41:48.122Z,99.90
2018-12-09T12:44:17.824Z,99.90
2018-12-09T12:46:47.058Z,99.90
2018-12-09T12:49:16.292Z,99.90
2018-12-09T12:51:45.568Z,99.90
2018-12-09T12:54:14.844Z,99.90
2018-12-09T12:56:44.063Z,99.90
2018-12-09T12:59:13.248Z,99.90
2018-12-09T13:01:42.579Z,99.90
2018-12-09T13:04:11.813Z,99.90
2018-12-09T13:06:41.018Z,99.90
2018-12-09T13:09:10.211Z,99.90
2018-12-09T13:11:39.412Z,99.90
2018-12-09T13:14:09.266Z,99.90
2018-12-09T13:16:38.501Z,99.90
2018-12-09T13:19:07.710Z,99.90
2018-12-09T13:21:37.021Z,99.90
2018-12-09T13:24:06.219Z,99.90
2018-12-09T13:26:36.027Z,99.90
2018-12-09T13:29:05.323Z,99.90
2018-12-09T13:31:34.537Z,99.90
2018-12-09T13:34:03.738Z,99.90
2018-12-09T13:36:32.923Z,99.90
2018-12-09T13:39:02.196Z,99.90
2018-12-09T13:41:31.464Z,99.90
2018-12-09T13:44:00.663Z,99.90
2018-12-09T13:46:30.312Z,99.90
2018-12-09T13:48:59.785Z,99.90
2018-12-09T13:51:28.977Z,99.90
2018-12-09T13:53:58.210Z,99.90
2018-12-09T13:56:27.397Z,99.90
2018-12-09T13:58:56.644Z,99.90
2018-12-09T14:01:25.847Z,99.90
2018-12-09T14:03:55.077Z,99.90
2018-12-09T14:06:24.337Z,99.90
2018-12-09T14:08:53.557Z,99.90
2018-12-09T14:11:22.840Z,99.90
2018-12-09T14:13:52.022Z,99.90
2018-12-09T14:16:21.283Z,99.90
2018-12-09T14:18:50.559Z,99.90
2018-12-09T14:21:19.747Z,99.90
2018-12-09T14:23:49.009Z,99.90
2018-12-09T14:26:18.317Z,99.90
2018-12-09T14:28:47.612Z,99.90
2018-12-09T14:31:16.822Z,99.90
2018-12-09T14:33:46.005Z,99.90
2018-12-09T14:36:15.230Z,99.90
2018-12-09T14:38:44.481Z,99.90
2018-12-09T14:41:15.167Z,99.90
2018-12-09T14:43:44.459Z,99.90
2018-12-09T14:46:13.688Z,99.90
2018-12-09T14:48:43.360Z,99.90
2018-12-09T14:51:12.763Z,99.90
2018-12-09T14:53:41.942Z,99.90
2018-12-09T14:56:11.166Z,99.90
2018-12-09T14:58:40.466Z,99.90
2018-12-09T15:01:09.663Z,99.90
2018-12-09T15:03:38.885Z,99.90
2018-12-09T15:06:08.145Z,99.90
2018-12-09T15:08:37.440Z,99.90
2018-12-09T15:11:06.722Z,99.90
2018-12-09T15:13:35.984Z,99.20
2018-12-09T15:16:05.198Z,99.20
2018-12-09T15:18:34.525Z,98.70
2018-12-09T15:21:03.703Z,97.60
2018-12-09T15:23:33.067Z,96.40
2018-12-09T15:26:02.314Z,94.70
2018-12-09T15:28:31.529Z,94.20
2018-12-09T15:31:00.717Z,92.70
2018-12-09T15:33:30.002Z,92.50
2018-12-09T15:35:59.512Z,91.30
2018-12-09T15:38:28.766Z,90.80
2018-12-09T15:40:58.069Z,90.70
2018-12-09T15:43:27.233Z,89.40
2018-12-09T15:45:56.507Z,87.10
2018-12-09T15:48:25.741Z,82.20
2018-12-09T15:50:55.393Z,80.70
2018-12-09T15:53:24.717Z,81.40
2018-12-09T15:55:53.942Z,79.70
2018-12-09T15:58:23.212Z,74.40
2018-12-09T16:00:56.832Z,73.80
2018-12-09T16:03:26.189Z,71.80
2018-12-09T16:05:55.421Z,70.60
2018-12-09T16:08:24.587Z,71.80
2018-12-09T16:10:53.837Z,70.10
2018-12-09T16:13:23.061Z,70.80
2018-12-09T16:15:52.317Z,69.50
2018-12-09T16:18:24.821Z,67.80
2018-12-09T16:20:54.048Z,65.00
2018-12-09T16:23:23.336Z,63.90
2018-12-09T16:25:52.635Z,63.80
2018-12-09T16:28:22.317Z,62.90
2018-12-09T16:30:52.553Z,62.40
2018-12-09T16:33:21.896Z,62.70
2018-12-09T16:35:51.074Z,62.80
2018-12-09T16:38:20.427Z,62.20
2018-12-09T16:40:49.693Z,61.90
2018-12-09T16:43:18.919Z,61.00
2018-12-09T16:45:48.117Z,60.30
2018-12-09T16:48:17.527Z,59.10
2018-12-09T16:50:46.857Z,59.80
2018-12-09T16:53:16.563Z,59.30
2018-12-09T16:55:45.783Z,59.40
2018-12-09T16:58:15.008Z,59.40
2018-12-09T17:00:44.383Z,57.70
2018-12-09T17:03:13.650Z,57.10
2018-12-09T17:05:42.861Z,56.40
2018-12-09T17:08:12.102Z,56.80
2018-12-09T17:10:41.337Z,57.40
2018-12-09T17:13:10.540Z,57.70
2018-12-09T17:15:39.731Z,57.50
2018-12-09T17:18:09.010Z,56.30
2018-12-09T17:20:38.302Z,54.60
2018-12-09T17:23:07.462Z,56.00
2018-12-09T17:25:36.706Z,57.60
2018-12-09T17:28:05.910Z,57.30
2018-12-09T17:30:35.117Z,55.90
2018-12-09T17:33:04.316Z,55.40
2018-12-09T17:35:33.532Z,55.90
2018-12-09T17:38:02.957Z,55.10
2018-12-09T17:40:32.168Z,55.40
2018-12-09T17:43:01.378Z,54.40
2018-12-09T17:45:30.604Z,53.70
2018-12-09T17:47:59.863Z,54.10
2018-12-09T17:50:29.172Z,54.60
2018-12-09T17:52:58.360Z,55.60
2018-12-09T17:55:27.835Z,52.80
2018-12-09T17:57:57.136Z,53.00
2018-12-09T18:00:26.452Z,53.00
2018-12-09T18:02:55.831Z,53.60
2018-12-09T18:05:25.195Z,52.40
2018-12-09T18:07:54.571Z,53.10
2018-12-09T18:10:24.031Z,52.70
2018-12-09T18:12:53.305Z,52.20
2018-12-09T18:15:23.407Z,52.50
2018-12-09T18:17:52.696Z,51.80
2018-12-09T18:20:21.938Z,50.20
2018-12-09T18:22:51.389Z,50.70
2018-12-09T18:25:21.081Z,51.20
2018-12-09T18:27:50.407Z,51.90
2018-12-09T18:30:19.784Z,52.40
2018-12-09T18:32:49.381Z,52.40
2018-12-09T18:35:18.652Z,51.10
2018-12-09T18:37:47.917Z,50.70
2018-12-09T18:40:17.151Z,50.70
2018-12-09T18:42:46.647Z,50.90
2018-12-09T18:45:15.968Z,51.20
2018-12-09T18:47:45.143Z,51.50
2018-12-09T18:50:14.355Z,51.40
2018-12-09T18:52:43.589Z,51.10
2018-12-09T18:55:12.825Z,50.20
2018-12-09T18:57:42.357Z,50.50
2018-12-09T19:00:11.631Z,49.60
2018-12-09T19:02:40.793Z,48.80
2018-12-09T19:05:10.108Z,49.00
2018-12-09T19:07:39.282Z,49.00
2018-12-09T19:10:08.542Z,49.00
2018-12-09T19:12:37.826Z,50.50
2018-12-09T19:15:08.426Z,49.60
2018-12-09T19:17:37.680Z,49.30
2018-12-09T19:20:08.021Z,48.70
2018-12-09T19:22:37.294Z,48.20
2018-12-09T19:25:06.960Z,49.10
2018-12-09T19:27:36.196Z,49.30
2018-12-09T19:30:06.370Z,49.30
2018-12-09T19:32:35.558Z,48.90
2018-12-09T19:35:04.919Z,48.60
2018-12-09T19:37:34.176Z,48.70
2018-12-09T19:40:03.401Z,47.80
2018-12-09T19:42:32.603Z,48.40
2018-12-09T19:45:02.583Z,47.70
2018-12-09T19:47:31.837Z,47.30
2018-12-09T19:50:01.066Z,48.20
2018-12-09T19:52:30.254Z,48.30
2018-12-09T19:54:59.548Z,49.70
2018-12-09T19:57:29.843Z,50.10
2018-12-09T19:59:59.528Z,50.00
2018-12-09T20:02:28.813Z,49.70
2018-12-09T20:04:58.018Z,49.60
2018-12-09T20:07:27.238Z,49.70
2018-12-09T20:09:56.460Z,49.10
2018-12-09T20:12:26.681Z,48.70
2018-12-09T20:14:56.032Z,47.90
2018-12-09T20:17:25.300Z,48.90
2018-12-09T20:19:55.081Z,49.00
2018-12-09T20:22:24.351Z,49.80
2018-12-09T20:24:53.599Z,49.60
2018-12-09T20:27:22.809Z,49.60
2018-12-09T20:29:52.095Z,50.30
2018-12-09T20:32:21.318Z,50.40
2018-12-09T20:34:50.587Z,50.20
2018-12-09T20:37:19.888Z,49.80
2018-12-09T20:39:49.303Z,50.00
2018-12-09T20:42:18.508Z,49.90
2018-12-09T20:44:47.751Z,49.60
2018-12-09T20:47:17.084Z,50.40
2018-12-09T20:49:46.293Z,51.10
2018-12-09T20:52:15.470Z,50.90
2018-12-09T20:54:44.646Z,50.60
2018-12-09T20:57:13.859Z,50.30
2018-12-09T20:59:43.089Z,49.70
2018-12-09T21:02:13.141Z,50.40
2018-12-09T21:04:42.377Z,50.10
2018-12-09T21:07:11.587Z,50.10
2018-12-09T21:09:40.876Z,50.50
2018-12-09T21:12:10.116Z,50.30
2018-12-09T21:14:39.327Z,50.60
2018-12-09T21:17:09.823Z,51.50
2018-12-09T21:19:39.529Z,52.00
2018-12-09T21:22:08.833Z,52.60
2018-12-09T21:24:38.180Z,52.40
2018-12-09T21:27:07.478Z,52.80
2018-12-09T21:29:36.756Z,53.70
2018-12-09T21:32:05.980Z,55.10
2018-12-09T21:34:35.193Z,55.20
2018-12-09T21:37:04.455Z,55.70
2018-12-09T21:39:33.669Z,54.70
2018-12-09T21:42:02.887Z,54.50
2018-12-09T21:44:32.265Z,54.20
2018-12-09T21:47:01.650Z,54.70
2018-12-09T21:49:30.972Z,56.20
2018-12-09T21:52:00.226Z,55.80
2018-12-09T21:54:29.513Z,55.40
2018-12-09T21:56:58.766Z,55.70
2018-12-09T21:59:27.976Z,58.10
2018-12-09T22:01:57.220Z,58.30
2018-12-09T22:04:26.946Z,59.60
2018-12-09T22:06:56.112Z,60.70
2018-12-09T22:09:25.837Z,61.10
2018-12-09T22:11:55.678Z,61.00
2018-12-09T22:14:24.902Z,61.40
2018-12-09T22:16:54.231Z,61.50
2018-12-09T22:19:24.083Z,61.00
2018-12-09T22:21:53.315Z,60.60
2018-12-09T22:24:22.720Z,61.40
2018-12-09T22:26:51.992Z,62.50
2018-12-09T22:29:21.186Z,63.00
2018-12-09T22:31:50.567Z,62.50
2018-12-09T22:34:19.807Z,63.40
2018-12-09T22:36:49.059Z,63.30
2018-12-09T22:39:18.294Z,64.10
2018-12-09T22:41:47.634Z,65.00
2018-12-09T22:44:17.061Z,66.30
2018-12-09T22:46:46.289Z,65.50
2018-12-09T22:49:15.520Z,67.00
2018-12-09T22:51:44.793Z,67.00
2018-12-09T22:54:14.152Z,67.70
2018-12-09T22:56:43.461Z,67.20
2018-12-09T22:59:12.686Z,66.70
2018-12-09T23:01:44.208Z,66.90
2018-12-09T23:04:13.699Z,66.90
2018-12-09T23:06:43.707Z,66.80
2018-12-09T23:09:13.040Z,66.80
2018-12-09T23:11:42.294Z,66.90
2018-12-09T23:14:11.823Z,66.60
2018-12-09T23:16:41.073Z,66.70
2018-12-09T23:19:10.239Z,66.90
2018-12-09T23:21:39.524Z,66.90
2018-12-09T23:24:08.766Z,67.10
2018-12-09T23:26:38.035Z,67.60
2018-12-09T23:29:07.246Z,67.40
2018-12-09T23:31:36.482Z,67.30
2018-12-09T23:34:05.763Z,67.50
2018-12-09T23:36:34.928Z,67.60
2018-12-09T23:39:05.606Z,67.50
2018-12-09T23:41:34.750Z,67.80
2018-12-09T23:44:04.040Z,67.90
2018-12-09T23:46:33.276Z,68.70
2018-12-09T23:49:02.463Z,69.60
2018-12-09T23:51:31.658Z,70.50
2018-12-09T23:54:00.909Z,71.20
2018-12-09T23:56:30.242Z,71.60
2018-12-09T23:58:59.546Z,71.30
